Terminal Aerodrome Forecast
Issued by NWS Charleston, WV

Home | Current Version | Previous Version | Text Only | Print | Product List | Glossary On
Versions: 1 2 3 4 5 6 7 8 9 10 11 12 13 14 15 16 17 18 19 20 21 22 23 24 25 26 27
000
FTUS41 KRLX 041740
TAFPKB
TAF
KPKB 041740Z 0418/0518 00000KT P6SM VCSH BKN060
     FM050000 00000KT P6SM SCT060
     FM051000 00000KT 3SM BR SCT070
     FM051300 00000KT P6SM SCT045
     FM051700 VRB03KT P6SM BKN035=

USA.gov is the U.S. government's official web portal to all federal, state and local government web resources and services.